Time;durP1;ratioP1;P1;durP2;ratioP2;P2;SDS_P1;SDS_P2;PMS_P1;PMS_P2;Temp;Humidity;BMP_temperature;BMP_pressure;BME280_temperature;BME280_humidity;BME280_pressure;Samples;Min_cycle;Max_cycle;Signal;HPM_P1;HPM_P2
2022/06/25 00:01:27;;;;;;;17.58;14.52;;;;;;;;;;5088470;28;20040;-63
2022/06/25 00:03:53;;;;;;;19.30;14.80;;;;;;;;;;5089772;28;20420;-63
2022/06/25 00:06:20;;;;;;;16.35;14.00;;;;;;;;;;5087424;28;20028;-63
2022/06/25 00:08:48;;;;;;;17.27;13.65;;;;;;;;;;5090138;28;20104;-63
2022/06/25 00:14:03;;;;;;;17.98;15.35;;;;;;;;;;5082417;28;20048;-63
2022/06/25 00:16:29;;;;;;;21.92;14.63;;;;;;;;;;5074742;28;20065;-63
2022/06/25 00:18:55;;;;;;;18.23;15.25;;;;;;;;;;5089137;28;20098;-63
2022/06/25 00:21:22;;;;;;;23.05;16.08;;;;;;;;;;5071575;28;20049;-63
2022/06/25 00:23:48;;;;;;;19.08;14.95;;;;;;;;;;5085251;28;20040;-63
2022/06/25 00:26:15;;;;;;;20.33;16.98;;;;;;;;;;5082433;28;20044;-63
2022/06/25 00:28:41;;;;;;;19.88;16.67;;;;;;;;;;5092593;28;20546;-63
2022/06/25 00:31:07;;;;;;;28.35;19.13;;;;;;;;;;5087131;28;20505;-63
2022/06/25 00:33:33;;;;;;;19.10;16.67;;;;;;;;;;5081377;28;20039;-64
2022/06/25 00:35:59;;;;;;;22.38;18.17;;;;;;;;;;5090091;28;20387;-63
2022/06/25 00:38:26;;;;;;;21.48;17.77;;;;;;;;;;5097802;28;20563;-63
2022/06/25 00:40:52;;;;;;;31.33;20.05;;;;;;;;;;5093074;28;20473;-63
2022/06/25 00:43:18;;;;;;;24.08;20.95;;;;;;;;;;5095582;28;20039;-63
2022/06/25 00:45:44;;;;;;;22.75;19.60;;;;;;;;;;5088818;28;20028;-63
2022/06/25 00:48:11;;;;;;;24.08;20.52;;;;;;;;;;5084828;28;20231;-63
2022/06/25 00:50:37;;;;;;;23.40;18.92;;;;;;;;;;5090853;28;20043;-63
2022/06/25 00:53:07;;;;;;;21.60;19.27;;;;;;;;;;5091885;28;20036;-63
2022/06/25 00:55:36;;;;;;;22.45;18.77;;;;;;;;;;5087543;28;20040;-63
2022/06/25 00:58:02;;;;;;;19.75;17.23;;;;;;;;;;5095032;28;20051;-63
2022/06/25 01:00:29;;;;;;;23.40;19.92;;;;;;;;;;5100718;28;20052;-63
2022/06/25 01:02:55;;;;;;;19.98;17.88;;;;;;;;;;5071640;28;20050;-63
2022/06/25 01:05:21;;;;;;;20.77;18.55;;;;;;;;;;5092739;28;20028;-64
2022/06/25 01:07:48;;;;;;;24.55;20.02;;;;;;;;;;5091800;28;20061;-63
2022/06/25 01:10:14;;;;;;;20.40;16.45;;;;;;;;;;5090938;28;20052;-64
2022/06/25 01:12:41;;;;;;;21.08;18.67;;;;;;;;;;5085489;28;20144;-63
2022/06/25 01:15:09;;;;;;;19.55;17.38;;;;;;;;;;5094780;28;20040;-63
2022/06/25 01:17:48;;;;;;;19.10;16.75;;;;;;;;;;5085446;28;20126;-64
2022/06/25 01:20:16;;;;;;;20.17;17.38;;;;;;;;;;5093159;28;20397;-63
2022/06/25 01:22:42;;;;;;;25.27;17.20;;;;;;;;;;5088624;28;20472;-64
2022/06/25 01:25:12;;;;;;;19.85;17.58;;;;;;;;;;5099904;28;20039;-64
2022/06/25 01:27:38;;;;;;;20.63;17.80;;;;;;;;;;5091601;28;20358;-63
2022/06/25 01:30:05;;;;;;;22.38;20.05;;;;;;;;;;5082454;28;20070;-63
2022/06/25 01:32:31;;;;;;;21.58;18.58;;;;;;;;;;5085512;28;20052;-63
2022/06/25 01:34:57;;;;;;;21.20;18.58;;;;;;;;;;5100526;28;20436;-63
2022/06/25 01:37:23;;;;;;;22.08;18.75;;;;;;;;;;5096491;28;20039;-63
2022/06/25 01:39:53;;;;;;;20.42;17.65;;;;;;;;;;5097389;28;20033;-64
2022/06/25 01:45:05;;;;;;;18.92;16.98;;;;;;;;;;5094446;28;20097;-63
2022/06/25 01:47:31;;;;;;;21.30;17.92;;;;;;;;;;5097071;28;20036;-63
2022/06/25 01:49:57;;;;;;;19.58;17.25;;;;;;;;;;5098925;28;20050;-64
2022/06/25 01:52:23;;;;;;;22.88;18.88;;;;;;;;;;5085703;28;20039;-64
2022/06/25 01:54:49;;;;;;;22.60;18.85;;;;;;;;;;5096268;28;20474;-64
2022/06/25 01:57:15;;;;;;;21.40;16.75;;;;;;;;;;5073492;28;20029;-63
2022/06/25 01:59:41;;;;;;;21.52;19.23;;;;;;;;;;5072230;28;20514;-64
2022/06/25 02:02:07;;;;;;;20.35;18.13;;;;;;;;;;5087172;28;20032;-63
2022/06/25 02:04:33;;;;;;;20.83;17.23;;;;;;;;;;5097619;28;20032;-63
2022/06/25 02:07:00;;;;;;;21.88;18.23;;;;;;;;;;5088968;28;20029;-63
2022/06/25 02:09:26;;;;;;;21.60;18.42;;;;;;;;;;5081958;28;20068;-63
2022/06/25 02:11:52;;;;;;;21.80;17.83;;;;;;;;;;5085017;28;20044;-63
2022/06/25 02:14:18;;;;;;;21.85;17.77;;;;;;;;;;5080470;28;20035;-64
2022/06/25 02:16:44;;;;;;;23.77;18.25;;;;;;;;;;5096347;28;20054;-63
2022/06/25 02:19:10;;;;;;;23.73;18.60;;;;;;;;;;5086953;28;20262;-63
2022/06/25 02:21:36;;;;;;;20.27;17.42;;;;;;;;;;5093075;28;20039;-63
2022/06/25 02:24:02;;;;;;;22.25;17.95;;;;;;;;;;5076037;28;20220;-63
2022/06/25 02:26:29;;;;;;;24.10;17.85;;;;;;;;;;5103911;28;20057;-63
2022/06/25 02:28:55;;;;;;;22.17;18.23;;;;;;;;;;5086789;28;20089;-63
2022/06/25 02:31:21;;;;;;;21.63;17.65;;;;;;;;;;5093783;28;20040;-64
2022/06/25 02:33:47;;;;;;;20.45;17.50;;;;;;;;;;5085560;28;20044;-63
2022/06/25 02:36:13;;;;;;;23.45;16.85;;;;;;;;;;5093776;28;20382;-63
2022/06/25 02:38:39;;;;;;;18.50;16.45;;;;;;;;;;5100781;28;20042;-63
2022/06/25 02:41:05;;;;;;;19.05;16.42;;;;;;;;;;5102671;28;20044;-63
2022/06/25 02:43:32;;;;;;;18.42;15.75;;;;;;;;;;5073088;28;20050;-63
2022/06/25 02:45:58;;;;;;;21.50;16.40;;;;;;;;;;5090244;28;20040;-63
2022/06/25 02:48:24;;;;;;;17.38;14.98;;;;;;;;;;5077534;28;20040;-63
2022/06/25 02:50:50;;;;;;;23.08;16.02;;;;;;;;;;5098654;28;20511;-63
2022/06/25 02:53:16;;;;;;;18.35;15.80;;;;;;;;;;5093640;28;20466;-63
2022/06/25 03:01:12;;;;;;;17.90;15.43;;;;;;;;;;5073699;28;20052;-63
2022/06/25 03:03:38;;;;;;;18.33;14.95;;;;;;;;;;5097638;28;20127;-64
2022/06/25 03:06:04;;;;;;;17.73;15.25;;;;;;;;;;5091830;28;20036;-63
2022/06/25 03:08:31;;;;;;;18.25;14.90;;;;;;;;;;5089849;28;20036;-63
2022/06/25 03:10:57;;;;;;;17.30;14.27;;;;;;;;;;5088476;28;20448;-63
2022/06/25 03:13:23;;;;;;;18.20;15.68;;;;;;;;;;5102341;28;20538;-63
2022/06/25 03:15:49;;;;;;;17.08;15.13;;;;;;;;;;5086970;28;20043;-63
2022/06/25 03:18:15;;;;;;;16.38;14.57;;;;;;;;;;5093328;28;20039;-63
2022/06/25 03:20:41;;;;;;;17.63;15.82;;;;;;;;;;5093323;28;20433;-63
2022/06/25 03:23:08;;;;;;;16.35;14.15;;;;;;;;;;5090121;28;20145;-63
2022/06/25 03:25:34;;;;;;;16.60;14.43;;;;;;;;;;5077968;28;20028;-63
2022/06/25 03:28:00;;;;;;;17.60;15.23;;;;;;;;;;5089643;28;20035;-63
2022/06/25 03:30:26;;;;;;;16.42;14.60;;;;;;;;;;5087487;28;20210;-63
2022/06/25 03:32:52;;;;;;;18.90;14.05;;;;;;;;;;5087187;28;20048;-63
2022/06/25 03:35:18;;;;;;;17.20;15.38;;;;;;;;;;5084097;28;20058;-63
2022/06/25 03:37:44;;;;;;;18.48;14.73;;;;;;;;;;5085062;28;20086;-63
2022/06/25 03:40:11;;;;;;;15.15;12.90;;;;;;;;;;5085704;28;20044;-63
2022/06/25 03:42:37;;;;;;;17.00;14.68;;;;;;;;;;5089366;28;20043;-63
2022/06/25 03:45:04;;;;;;;18.77;13.32;;;;;;;;;;5084333;28;20039;-63
2022/06/25 03:47:30;;;;;;;16.30;13.32;;;;;;;;;;5080507;28;20039;-63
2022/06/25 03:49:56;;;;;;;16.02;13.30;;;;;;;;;;5074098;28;20048;-63
2022/06/25 03:52:22;;;;;;;16.13;13.45;;;;;;;;;;5088898;28;20543;-63
2022/06/25 03:54:48;;;;;;;15.35;13.63;;;;;;;;;;5092706;28;20079;-63
2022/06/25 03:57:14;;;;;;;17.00;13.15;;;;;;;;;;5063739;28;20398;-63
2022/06/25 03:59:41;;;;;;;14.15;12.43;;;;;;;;;;5053458;28;20044;-63
2022/06/25 04:02:07;;;;;;;14.05;12.57;;;;;;;;;;5059724;28;20037;-63
2022/06/25 04:04:33;;;;;;;16.70;12.48;;;;;;;;;;5084744;28;20085;-63
2022/06/25 04:06:59;;;;;;;15.60;12.13;;;;;;;;;;5058301;28;20052;-63
2022/06/25 04:09:25;;;;;;;12.57;11.15;;;;;;;;;;5089931;28;20048;-63
2022/06/25 04:11:51;;;;;;;14.93;11.82;;;;;;;;;;5091486;28;20038;-63
2022/06/25 04:14:17;;;;;;;13.77;11.48;;;;;;;;;;5087613;28;20036;-63
2022/06/25 04:16:45;;;;;;;13.15;11.52;;;;;;;;;;5082523;28;20048;-63
2022/06/25 04:19:13;;;;;;;11.35;9.80;;;;;;;;;;5091065;28;20070;-63
2022/06/25 04:21:39;;;;;;;11.82;9.77;;;;;;;;;;5090991;28;20050;-63
2022/06/25 04:24:05;;;;;;;13.52;9.77;;;;;;;;;;5087771;28;20571;-63
2022/06/25 04:26:32;;;;;;;12.13;8.95;;;;;;;;;;5086686;28;20512;-63
2022/06/25 04:29:04;;;;;;;13.30;10.70;;;;;;;;;;5086753;28;20516;-64
2022/06/25 04:31:31;;;;;;;11.95;10.25;;;;;;;;;;5084268;28;20040;-63
2022/06/25 04:33:57;;;;;;;12.35;8.95;;;;;;;;;;5084906;28;20040;-63
2022/06/25 04:36:23;;;;;;;12.07;9.85;;;;;;;;;;5083359;28;20071;-63
2022/06/25 04:38:50;;;;;;;10.30;9.05;;;;;;;;;;5087338;28;20114;-63
2022/06/25 04:41:16;;;;;;;10.20;8.63;;;;;;;;;;5089965;28;20041;-63
2022/06/25 04:43:42;;;;;;;11.48;9.20;;;;;;;;;;5088767;28;20052;-63
2022/06/25 04:46:08;;;;;;;11.85;9.23;;;;;;;;;;5089388;28;20025;-63
2022/06/25 04:48:35;;;;;;;10.43;8.88;;;;;;;;;;5090751;28;20397;-63
2022/06/25 04:51:01;;;;;;;11.13;8.07;;;;;;;;;;5087916;28;20039;-64
2022/06/25 04:53:27;;;;;;;13.65;9.02;;;;;;;;;;5090882;28;20107;-63
2022/06/25 04:55:54;;;;;;;11.25;8.32;;;;;;;;;;5081066;28;20040;-64
2022/06/25 04:58:20;;;;;;;9.55;8.55;;;;;;;;;;5091913;28;20071;-63
2022/06/25 05:00:46;;;;;;;12.45;8.80;;;;;;;;;;5087736;28;20094;-63
2022/06/25 05:03:12;;;;;;;10.52;9.35;;;;;;;;;;5094243;28;20040;-63
2022/06/25 05:05:39;;;;;;;13.20;9.85;;;;;;;;;;5092345;28;20036;-63
2022/06/25 05:08:05;;;;;;;10.55;9.18;;;;;;;;;;5086018;28;20492;-62
2022/06/25 05:10:31;;;;;;;9.45;8.45;;;;;;;;;;5094783;28;20039;-63
2022/06/25 05:13:13;;;;;;;12.50;10.77;;;;;;;;;;5088907;28;20044;-63
2022/06/25 05:15:39;;;;;;;10.60;8.68;;;;;;;;;;5087726;28;20043;-63
2022/06/25 05:18:06;;;;;;;12.18;9.25;;;;;;;;;;5092209;28;20545;-62
2022/06/25 05:20:32;;;;;;;9.95;8.95;;;;;;;;;;5086692;28;20132;-62
2022/06/25 05:22:59;;;;;;;10.57;9.05;;;;;;;;;;5083629;28;20316;-63
2022/06/25 05:25:25;;;;;;;12.18;9.18;;;;;;;;;;5096655;28;20071;-62
2022/06/25 05:27:51;;;;;;;20.20;9.45;;;;;;;;;;5088276;28;20119;-63
2022/06/25 05:30:17;;;;;;;10.18;7.55;;;;;;;;;;5088692;28;20044;-63
2022/06/25 05:32:43;;;;;;;12.07;9.25;;;;;;;;;;5095166;28;20071;-63
2022/06/25 05:35:09;;;;;;;11.32;8.80;;;;;;;;;;5103386;28;20107;-63
2022/06/25 05:37:36;;;;;;;9.73;7.57;;;;;;;;;;5091720;28;20040;-63
2022/06/25 05:40:02;;;;;;;11.73;8.57;;;;;;;;;;5083286;28;20095;-63
2022/06/25 05:42:28;;;;;;;10.82;8.23;;;;;;;;;;5085594;28;20379;-63
2022/06/25 05:44:54;;;;;;;10.23;9.18;;;;;;;;;;5079953;28;20542;-63
2022/06/25 05:47:20;;;;;;;14.50;10.05;;;;;;;;;;5104623;28;20149;-63
2022/06/25 05:49:46;;;;;;;12.65;9.07;;;;;;;;;;5098278;28;20556;-63
2022/06/25 05:52:12;;;;;;;12.45;9.07;;;;;;;;;;5094200;28;20048;-63
2022/06/25 05:54:38;;;;;;;13.05;9.55;;;;;;;;;;5080881;28;20079;-63
2022/06/25 05:57:04;;;;;;;10.73;9.07;;;;;;;;;;5091449;28;20143;-63
2022/06/25 05:59:31;;;;;;;10.90;7.72;;;;;;;;;;5093767;28;20044;-63
2022/06/25 06:01:57;;;;;;;9.13;8.23;;;;;;;;;;5088596;28;20094;-63
2022/06/25 06:04:23;;;;;;;13.27;8.65;;;;;;;;;;5101536;28;20089;-63
2022/06/25 06:06:51;;;;;;;11.15;8.30;;;;;;;;;;5093397;28;20255;-63
2022/06/25 06:09:17;;;;;;;10.80;9.25;;;;;;;;;;5088685;28;20052;-63
2022/06/25 06:11:43;;;;;;;11.80;9.10;;;;;;;;;;5093025;28;20068;-63
2022/06/25 06:14:09;;;;;;;9.25;7.72;;;;;;;;;;5091000;28;20078;-63
2022/06/25 06:16:35;;;;;;;12.30;8.98;;;;;;;;;;5100421;28;20414;-63
2022/06/25 06:19:02;;;;;;;10.30;8.65;;;;;;;;;;5098438;28;20075;-63
2022/06/25 06:21:29;;;;;;;11.70;8.93;;;;;;;;;;5088992;28;20528;-63
2022/06/25 06:23:55;;;;;;;10.10;8.25;;;;;;;;;;5087568;28;20056;-63
2022/06/25 06:26:21;;;;;;;10.05;8.00;;;;;;;;;;5086384;28;20035;-63
2022/06/25 06:28:47;;;;;;;10.75;8.27;;;;;;;;;;5084814;28;20390;-63
2022/06/25 06:31:13;;;;;;;10.23;8.63;;;;;;;;;;5085014;28;20043;-63
2022/06/25 06:33:39;;;;;;;9.75;7.75;;;;;;;;;;5087113;28;20043;-63
2022/06/25 06:36:06;;;;;;;9.25;7.88;;;;;;;;;;5080625;28;20038;-63
2022/06/25 06:38:32;;;;;;;11.85;7.55;;;;;;;;;;5089503;28;20412;-63
2022/06/25 06:40:58;;;;;;;12.07;7.97;;;;;;;;;;5087888;28;20075;-63
2022/06/25 06:43:24;;;;;;;11.15;8.02;;;;;;;;;;5088144;28;20032;-62
2022/06/25 06:45:50;;;;;;;12.10;8.18;;;;;;;;;;5090312;28;20043;-62
2022/06/25 06:48:16;;;;;;;11.13;8.05;;;;;;;;;;5090529;28;20036;-61
2022/06/25 06:50:42;;;;;;;11.80;7.75;;;;;;;;;;5098977;28;20458;-62
2022/06/25 06:53:08;;;;;;;8.98;6.97;;;;;;;;;;5093952;28;20046;-62
2022/06/25 06:55:35;;;;;;;9.45;7.05;;;;;;;;;;5088498;28;20130;-62
2022/06/25 06:58:01;;;;;;;9.75;6.53;;;;;;;;;;5090989;28;20118;-62
2022/06/25 07:00:27;;;;;;;10.88;6.53;;;;;;;;;;5102552;28;20087;-62
2022/06/25 07:02:53;;;;;;;7.57;6.40;;;;;;;;;;5088537;28;20085;-61
2022/06/25 07:05:20;;;;;;;9.25;6.80;;;;;;;;;;5089584;28;20036;-61
2022/06/25 07:07:47;;;;;;;9.02;6.30;;;;;;;;;;5093198;28;20110;-61
2022/06/25 07:10:14;;;;;;;7.78;5.60;;;;;;;;;;5088716;28;20489;-62
2022/06/25 07:12:40;;;;;;;7.32;6.15;;;;;;;;;;5086271;28;20040;-61
2022/06/25 07:15:07;;;;;;;8.70;5.88;;;;;;;;;;5085857;28;20111;-62
2022/06/25 07:17:33;;;;;;;10.10;6.18;;;;;;;;;;5084982;28;20062;-62
2022/06/25 07:19:59;;;;;;;6.60;5.05;;;;;;;;;;5084671;28;20039;-62
2022/06/25 07:22:25;;;;;;;8.10;5.60;;;;;;;;;;5090776;28;20047;-62
2022/06/25 07:24:51;;;;;;;8.52;5.60;;;;;;;;;;5064100;28;20032;-62
2022/06/25 07:27:18;;;;;;;12.27;5.82;;;;;;;;;;5093524;28;20386;-62
2022/06/25 07:29:44;;;;;;;8.65;5.28;;;;;;;;;;5085471;28;20051;-62
2022/06/25 07:32:11;;;;;;;8.18;4.68;;;;;;;;;;5086552;28;20044;-62
2022/06/25 07:34:37;;;;;;;8.55;5.15;;;;;;;;;;5085148;28;20390;-63
2022/06/25 07:37:04;;;;;;;7.90;4.97;;;;;;;;;;5089920;28;20311;-63
2022/06/25 07:39:30;;;;;;;8.25;4.72;;;;;;;;;;5095244;28;20103;-62
2022/06/25 07:41:56;;;;;;;7.45;5.15;;;;;;;;;;5087177;28;20451;-62
2022/06/25 07:44:23;;;;;;;8.30;4.90;;;;;;;;;;5087996;28;20043;-62
2022/06/25 07:46:49;;;;;;;9.85;4.55;;;;;;;;;;5087137;28;20059;-63
2022/06/25 07:49:15;;;;;;;8.32;4.43;;;;;;;;;;5088533;28;20043;-62
2022/06/25 07:51:56;;;;;;;6.22;5.00;;;;;;;;;;5089113;28;20492;-61
2022/06/25 07:54:27;;;;;;;11.40;4.65;;;;;;;;;;5081781;28;20047;-62
2022/06/25 07:56:53;;;;;;;9.15;4.13;;;;;;;;;;5085338;28;20046;-61
2022/06/25 07:59:20;;;;;;;6.45;4.32;;;;;;;;;;5082198;28;20149;-61
2022/06/25 08:01:46;;;;;;;7.53;4.65;;;;;;;;;;5090965;28;20081;-62
2022/06/25 08:04:13;;;;;;;9.02;4.95;;;;;;;;;;5091824;28;20071;-62
2022/06/25 08:06:41;;;;;;;6.32;4.15;;;;;;;;;;5085968;28;20028;-62
2022/06/25 08:09:08;;;;;;;7.70;4.13;;;;;;;;;;5090169;28;20057;-62
2022/06/25 08:11:35;;;;;;;8.23;4.82;;;;;;;;;;5086037;28;20067;-62
2022/06/25 08:14:01;;;;;;;8.23;5.93;;;;;;;;;;5086196;28;20115;-62
2022/06/25 08:16:27;;;;;;;9.98;4.88;;;;;;;;;;5090759;28;20075;-62
2022/06/25 08:18:53;;;;;;;10.30;5.40;;;;;;;;;;5088918;28;20044;-62
2022/06/25 08:21:20;;;;;;;7.03;4.80;;;;;;;;;;5088270;28;20028;-62
2022/06/25 08:23:46;;;;;;;5.93;4.50;;;;;;;;;;5083021;28;20129;-62
2022/06/25 08:26:13;;;;;;;7.85;4.50;;;;;;;;;;5086610;28;20040;-62
2022/06/25 08:28:39;;;;;;;5.97;4.05;;;;;;;;;;5084823;28;20337;-63
2022/06/25 08:31:05;;;;;;;8.02;4.70;;;;;;;;;;5079421;28;20326;-63
2022/06/25 08:33:32;;;;;;;6.68;4.57;;;;;;;;;;5085016;28;20032;-63
2022/06/25 08:35:58;;;;;;;5.68;4.55;;;;;;;;;;5087049;28;20101;-63
2022/06/25 08:38:24;;;;;;;9.13;5.15;;;;;;;;;;5086548;28;20040;-63
2022/06/25 08:40:56;;;;;;;10.88;5.35;;;;;;;;;;5088211;28;20485;-62
2022/06/25 08:43:22;;;;;;;6.70;3.95;;;;;;;;;;5083126;28;20473;-63
2022/06/25 08:45:48;;;;;;;6.15;4.00;;;;;;;;;;5085327;28;20043;-63
2022/06/25 08:48:16;;;;;;;6.28;4.00;;;;;;;;;;5088125;28;20071;-63
2022/06/25 08:50:44;;;;;;;5.97;4.13;;;;;;;;;;5098194;28;20070;-63
2022/06/25 08:53:12;;;;;;;7.88;4.70;;;;;;;;;;5095959;28;20486;-62
2022/06/25 08:55:39;;;;;;;8.27;3.97;;;;;;;;;;5084944;28;20097;-63
2022/06/25 08:58:05;;;;;;;7.95;4.68;;;;;;;;;;5089379;28;20044;-62
2022/06/25 09:00:33;;;;;;;5.03;4.32;;;;;;;;;;5088522;28;20055;-62
2022/06/25 09:03:00;;;;;;;7.43;4.40;;;;;;;;;;5089254;28;20040;-63
2022/06/25 09:05:33;;;;;;;7.57;4.03;;;;;;;;;;5088393;28;20043;-62
2022/06/25 09:08:02;;;;;;;5.40;3.65;;;;;;;;;;5089266;28;20032;-63
2022/06/25 09:10:29;;;;;;;6.85;4.25;;;;;;;;;;5085874;28;20048;-63
2022/06/25 09:12:57;;;;;;;8.60;4.70;;;;;;;;;;5089884;28;20043;-63
2022/06/25 09:15:25;;;;;;;7.63;4.25;;;;;;;;;;5091637;28;20311;-63
2022/06/25 09:17:52;;;;;;;8.18;4.18;;;;;;;;;;5089123;28;20036;-63
2022/06/25 09:20:19;;;;;;;7.40;3.30;;;;;;;;;;5089509;28;20054;-63
2022/06/25 09:22:54;;;;;;;6.93;3.22;;;;;;;;;;5076732;28;20121;-63
2022/06/25 09:25:24;;;;;;;7.05;3.95;;;;;;;;;;5090578;28;20035;-63
2022/06/25 09:27:50;;;;;;;10.07;4.25;;;;;;;;;;5070293;28;20036;-63
2022/06/25 09:30:19;;;;;;;4.85;3.25;;;;;;;;;;5085712;28;20043;-63
2022/06/25 09:32:46;;;;;;;8.43;3.28;;;;;;;;;;5092876;28;20760;-63
2022/06/25 09:35:13;;;;;;;6.53;3.75;;;;;;;;;;5084683;28;20147;-62
2022/06/25 09:37:39;;;;;;;9.43;4.68;;;;;;;;;;5082149;28;20032;-64
2022/06/25 09:40:06;;;;;;;6.90;3.63;;;;;;;;;;5086090;28;20044;-63
2022/06/25 09:42:34;;;;;;;6.32;4.15;;;;;;;;;;5090467;28;20235;-63
2022/06/25 09:45:20;;;;;;;8.27;4.53;;;;;;;;;;5083504;28;20176;-63
2022/06/25 09:47:46;;;;;;;4.65;3.45;;;;;;;;;;5087851;28;20048;-63
2022/06/25 09:50:15;;;;;;;7.63;4.13;;;;;;;;;;5087934;28;20040;-63
2022/06/25 09:52:55;;;;;;;8.80;3.63;;;;;;;;;;5089620;28;20068;-63
2022/06/25 09:55:22;;;;;;;7.10;4.40;;;;;;;;;;5086838;28;20052;-63
2022/06/25 09:57:48;;;;;;;6.80;3.47;;;;;;;;;;5096086;28;20040;-62
2022/06/25 10:00:15;;;;;;;6.25;3.78;;;;;;;;;;5090200;28;20135;-63
2022/06/25 10:02:42;;;;;;;5.30;3.90;;;;;;;;;;5086794;28;20529;-63
2022/06/25 10:05:10;;;;;;;5.75;4.07;;;;;;;;;;5089635;28;20067;-63
2022/06/25 10:10:22;;;;;;;3.92;2.40;;;;;;;;;;5097909;28;20417;-63
2022/06/25 10:12:49;;;;;;;4.22;2.67;;;;;;;;;;5084044;28;20116;-63
2022/06/25 10:15:20;;;;;;;6.07;3.17;;;;;;;;;;5090511;28;20071;-63
2022/06/25 10:17:47;;;;;;;4.47;3.22;;;;;;;;;;5088537;28;20040;-63
2022/06/25 10:20:14;;;;;;;4.13;2.88;;;;;;;;;;5092435;28;20429;-63
2022/06/25 10:22:41;;;;;;;7.53;3.25;;;;;;;;;;5080916;28;20208;-63
2022/06/25 10:25:12;;;;;;;5.65;3.80;;;;;;;;;;5089169;28;20074;-63
2022/06/25 10:27:39;;;;;;;4.70;2.42;;;;;;;;;;5086526;28;20058;-63
2022/06/25 10:30:05;;;;;;;7.82;2.97;;;;;;;;;;5093715;28;20043;-63
2022/06/25 10:32:35;;;;;;;8.32;3.50;;;;;;;;;;5090109;28;20089;-63
2022/06/25 10:35:02;;;;;;;5.55;3.15;;;;;;;;;;5085773;28;20044;-64
2022/06/25 10:37:28;;;;;;;6.10;2.95;;;;;;;;;;5083114;28;20086;-63
2022/06/25 10:39:55;;;;;;;5.30;3.47;;;;;;;;;;5093814;28;20055;-64
2022/06/25 10:45:07;;;;;;;5.40;3.20;;;;;;;;;;5080633;28;20047;-62
2022/06/25 10:47:53;;;;;;;7.90;3.65;;;;;;;;;;5080146;28;20528;-63
2022/06/25 10:50:22;;;;;;;6.10;3.15;;;;;;;;;;5080181;28;20097;-63
2022/06/25 10:53:05;;;;;;;5.28;3.20;;;;;;;;;;5085444;28;20040;-63
2022/06/25 10:55:36;;;;;;;5.78;3.00;;;;;;;;;;5091016;28;20093;-63
2022/06/25 10:58:15;;;;;;;4.25;2.92;;;;;;;;;;5088759;28;20577;-63
2022/06/25 11:00:49;;;;;;;5.45;3.17;;;;;;;;;;5101821;28;20112;-63
2022/06/25 11:03:16;;;;;;;5.35;3.35;;;;;;;;;;5081931;28;20085;-63
2022/06/25 11:05:43;;;;;;;4.28;3.15;;;;;;;;;;5091948;28;20040;-63
2022/06/25 11:08:09;;;;;;;7.53;4.00;;;;;;;;;;5083562;28;20040;-63
2022/06/25 11:10:36;;;;;;;10.63;3.97;;;;;;;;;;5081944;28;20082;-63
2022/06/25 11:13:07;;;;;;;7.95;3.60;;;;;;;;;;5083839;28;20745;-62
2022/06/25 11:15:39;;;;;;;8.90;3.70;;;;;;;;;;5083991;28;20055;-62
2022/06/25 11:18:09;;;;;;;8.80;3.45;;;;;;;;;;5087180;28;20035;-63
2022/06/25 11:20:36;;;;;;;7.25;3.53;;;;;;;;;;5085774;28;20058;-63
2022/06/25 11:23:02;;;;;;;8.05;3.78;;;;;;;;;;5079470;28;20045;-62
2022/06/25 11:28:48;;;;;;;9.32;4.25;;;;;;;;;;5084496;28;20040;-63
2022/06/25 11:31:15;;;;;;;5.72;3.38;;;;;;;;;;5080893;28;20032;-62
2022/06/25 11:33:43;;;;;;;9.20;3.67;;;;;;;;;;5084532;28;20036;-63
2022/06/25 11:36:10;;;;;;;7.30;4.68;;;;;;;;;;5088797;28;20115;-63
2022/06/25 11:38:37;;;;;;;10.88;4.95;;;;;;;;;;5081821;28;20033;-63
2022/06/25 11:41:03;;;;;;;9.27;5.50;;;;;;;;;;5083550;28;20111;-63
2022/06/25 11:43:30;;;;;;;7.00;3.65;;;;;;;;;;5084293;28;20039;-63
2022/06/25 11:45:57;;;;;;;5.20;3.80;;;;;;;;;;5089462;28;20119;-63
2022/06/25 11:48:27;;;;;;;6.07;3.88;;;;;;;;;;5088935;28;20047;-63
2022/06/25 11:50:53;;;;;;;4.57;3.90;;;;;;;;;;5087644;28;20044;-63
2022/06/25 11:53:20;;;;;;;6.43;4.15;;;;;;;;;;5087175;28;20077;-63
2022/06/25 11:55:59;;;;;;;6.53;4.93;;;;;;;;;;5086340;28;20046;-63
2022/06/25 11:58:26;;;;;;;6.53;4.90;;;;;;;;;;5095086;28;20045;-63
2022/06/25 12:00:59;;;;;;;6.78;4.50;;;;;;;;;;5086497;28;20044;-63
2022/06/25 12:03:26;;;;;;;7.72;4.50;;;;;;;;;;5086052;28;20120;-64
2022/06/25 12:05:53;;;;;;;7.28;5.10;;;;;;;;;;5087128;28;20051;-63
2022/06/25 12:08:20;;;;;;;8.68;4.60;;;;;;;;;;5090772;28;20032;-63
2022/06/25 12:10:48;;;;;;;9.13;4.68;;;;;;;;;;5087225;28;20044;-63
2022/06/25 12:13:21;;;;;;;6.85;4.40;;;;;;;;;;5083762;28;20044;-63
2022/06/25 12:15:48;;;;;;;7.68;4.43;;;;;;;;;;5077844;28;20036;-63
2022/06/25 12:18:14;;;;;;;7.30;3.70;;;;;;;;;;5085214;28;20036;-63
2022/06/25 12:20:54;;;;;;;6.07;4.35;;;;;;;;;;5089086;28;20047;-63
2022/06/25 12:23:20;;;;;;;10.23;4.78;;;;;;;;;;5085030;28;20684;-63
2022/06/25 12:25:47;;;;;;;8.25;3.72;;;;;;;;;;5085613;28;20040;-63
2022/06/25 12:28:14;;;;;;;10.23;5.55;;;;;;;;;;5087349;28;20470;-63
2022/06/25 12:30:40;;;;;;;8.23;4.88;;;;;;;;;;5092225;28;20093;-63
2022/06/25 12:33:09;;;;;;;7.63;4.57;;;;;;;;;;5090978;28;20062;-63
2022/06/25 12:35:40;;;;;;;7.97;5.70;;;;;;;;;;5089849;28;20044;-63
2022/06/25 12:38:11;;;;;;;7.55;5.38;;;;;;;;;;5091874;28;20061;-63
2022/06/25 12:40:39;;;;;;;13.73;5.55;;;;;;;;;;5086777;28;20040;-63
2022/06/25 12:43:06;;;;;;;10.10;6.07;;;;;;;;;;5086013;28;20114;-63
2022/06/25 12:45:35;;;;;;;8.88;5.40;;;;;;;;;;5087874;28;20044;-63
2022/06/25 12:48:03;;;;;;;7.45;5.60;;;;;;;;;;5095791;28;20114;-63
2022/06/25 12:50:30;;;;;;;8.18;6.38;;;;;;;;;;5091658;28;20585;-64
2022/06/25 12:53:05;;;;;;;8.95;6.72;;;;;;;;;;5092987;28;20032;-63
2022/06/25 12:55:31;;;;;;;7.75;6.00;;;;;;;;;;5081760;28;20046;-63
2022/06/25 12:58:02;;;;;;;10.93;6.47;;;;;;;;;;5086777;28;20040;-63
2022/06/25 13:00:28;;;;;;;10.65;6.88;;;;;;;;;;5089535;28;20048;-63
2022/06/25 13:02:54;;;;;;;9.63;7.18;;;;;;;;;;5077611;28;20044;-63
2022/06/25 13:05:21;;;;;;;10.20;7.63;;;;;;;;;;5093376;28;20068;-63
2022/06/25 13:07:48;;;;;;;8.93;6.70;;;;;;;;;;5095271;28;20093;-63
2022/06/25 13:10:14;;;;;;;12.63;6.78;;;;;;;;;;5090025;28;20047;-63
2022/06/25 13:12:42;;;;;;;11.00;7.70;;;;;;;;;;5088776;28;20043;-63
2022/06/25 13:15:08;;;;;;;10.88;7.40;;;;;;;;;;5081213;28;20432;-63
2022/06/25 13:17:35;;;;;;;7.75;6.65;;;;;;;;;;5091737;28;20154;-63
2022/06/25 13:20:02;;;;;;;11.00;8.15;;;;;;;;;;5086581;28;20891;-63
2022/06/25 13:22:28;;;;;;;7.60;5.97;;;;;;;;;;5091610;28;20036;-63
2022/06/25 13:24:54;;;;;;;10.77;7.57;;;;;;;;;;5098650;28;20105;-63
2022/06/25 13:27:20;;;;;;;7.53;6.57;;;;;;;;;;5099696;28;20036;-63
2022/06/25 13:29:46;;;;;;;10.70;8.20;;;;;;;;;;5081868;28;20048;-64
2022/06/25 13:32:17;;;;;;;9.00;8.05;;;;;;;;;;5093171;28;20363;-63
2022/06/25 13:34:44;;;;;;;9.68;7.40;;;;;;;;;;5085029;28;20101;-63
2022/06/25 13:37:10;;;;;;;7.25;6.22;;;;;;;;;;5097091;28;20042;-63
2022/06/25 13:39:36;;;;;;;7.00;5.80;;;;;;;;;;5086462;28;20064;-63
2022/06/25 13:42:03;;;;;;;7.32;6.60;;;;;;;;;;5086592;28;20472;-62
2022/06/25 13:44:30;;;;;;;6.85;5.80;;;;;;;;;;5088437;28;20109;-63
2022/06/25 13:46:57;;;;;;;7.63;6.35;;;;;;;;;;5082830;28;20044;-63
2022/06/25 13:49:23;;;;;;;8.95;6.07;;;;;;;;;;5103391;28;20040;-62
2022/06/25 13:51:53;;;;;;;7.25;6.53;;;;;;;;;;5091418;28;20607;-63
2022/06/25 13:54:19;;;;;;;8.00;6.78;;;;;;;;;;5097601;28;20044;-62
2022/06/25 13:56:45;;;;;;;7.63;6.82;;;;;;;;;;5094827;28;20119;-63
2022/06/25 13:59:12;;;;;;;8.52;6.32;;;;;;;;;;5096698;28;20520;-62
2022/06/25 14:01:38;;;;;;;9.90;7.93;;;;;;;;;;5088094;28;20506;-62
2022/06/25 14:04:04;;;;;;;11.13;9.38;;;;;;;;;;5089354;28;20446;-62
2022/06/25 14:06:32;;;;;;;9.02;7.43;;;;;;;;;;5096965;28;20409;-62
2022/06/25 14:08:58;;;;;;;14.30;8.32;;;;;;;;;;5103967;28;20505;-62
2022/06/25 14:11:25;;;;;;;11.93;8.57;;;;;;;;;;5084273;28;20397;-62
2022/06/25 14:13:51;;;;;;;13.70;9.07;;;;;;;;;;5081623;28;20498;-63
2022/06/25 14:16:17;;;;;;;11.68;7.90;;;;;;;;;;5088714;28;20035;-63
2022/06/25 14:18:43;;;;;;;10.38;8.68;;;;;;;;;;5089323;28;20306;-63
2022/06/25 14:21:10;;;;;;;11.85;7.53;;;;;;;;;;5087519;28;20194;-63
2022/06/25 14:23:36;;;;;;;11.13;8.40;;;;;;;;;;5084637;28;20040;-63
2022/06/25 14:26:02;;;;;;;13.88;6.88;;;;;;;;;;5086465;28;20032;-63
2022/06/25 14:28:28;;;;;;;10.18;6.53;;;;;;;;;;5081891;28;20139;-63
2022/06/25 14:30:54;;;;;;;10.35;5.43;;;;;;;;;;5085969;28;20123;-63
2022/06/25 14:33:21;;;;;;;8.02;5.70;;;;;;;;;;5087276;28;20128;-63
2022/06/25 14:44:02;;;;;;;9.75;4.53;;;;;;;;;;5080732;28;20127;-63
2022/06/25 14:46:29;;;;;;;10.18;4.55;;;;;;;;;;5082204;28;20047;-63
2022/06/25 14:48:58;;;;;;;8.65;4.60;;;;;;;;;;5081240;28;20116;-63
2022/06/25 14:51:25;;;;;;;12.07;4.05;;;;;;;;;;5086984;28;20497;-63
2022/06/25 14:53:51;;;;;;;12.13;4.32;;;;;;;;;;5088302;28;20036;-63
2022/06/25 14:56:17;;;;;;;9.18;3.53;;;;;;;;;;5072738;28;20079;-63
2022/06/25 14:58:44;;;;;;;12.07;4.80;;;;;;;;;;5100302;28;20146;-63